Time;durP1;ratioP1;P1;durP2;ratioP2;P2;SDS_P1;SDS_P2;PMS_P1;PMS_P2;Temp;Humidity;BMP_temperature;BMP_pressure;BME280_temperature;BME280_humidity;BME280_pressure;Samples;Min_cycle;Max_cycle;Signal;HPM_P1;HPM_P2
2023/03/14 00:01:54;;;;;;;24.85;5.50;;;;;;;;;;5072633;28;20072;-76
2023/03/14 00:04:20;;;;;;;22.73;5.40;;;;;;;;;;5052291;28;20086;-76
2023/03/14 00:06:46;;;;;;;24.40;5.68;;;;;;;;;;5037446;28;20044;-76
2023/03/14 00:09:13;;;;;;;20.95;5.68;;;;;;;;;;5017866;28;20049;-76
2023/03/14 00:11:39;;;;;;;25.85;5.03;;;;;;;;;;5034779;28;20105;-76
2023/03/14 00:14:05;;;;;;;27.02;5.20;;;;;;;;;;5042675;28;20091;-76
2023/03/14 00:16:31;;;;;;;23.58;4.85;;;;;;;;;;5052472;28;20041;-76
2023/03/14 00:18:59;;;;;;;21.83;4.97;;;;;;;;;;5058044;28;20089;-76
2023/03/14 00:21:25;;;;;;;28.35;5.57;;;;;;;;;;5026916;28;20496;-76
2023/03/14 00:23:52;;;;;;;26.33;4.80;;;;;;;;;;5068344;28;20044;-76
2023/03/14 00:26:19;;;;;;;20.10;4.72;;;;;;;;;;5054073;28;20124;-76
2023/03/14 00:28:51;;;;;;;20.35;4.88;;;;;;;;;;5063814;28;20413;-76
2023/03/14 00:31:17;;;;;;;23.52;4.78;;;;;;;;;;5049573;28;20481;-76
2023/03/14 00:33:44;;;;;;;21.70;4.75;;;;;;;;;;5042043;28;20079;-76
2023/03/14 00:36:12;;;;;;;23.33;5.13;;;;;;;;;;5062439;28;20074;-76
2023/03/14 00:38:41;;;;;;;22.50;4.35;;;;;;;;;;5068771;28;20485;-76
2023/03/14 00:41:08;;;;;;;18.58;4.60;;;;;;;;;;5065984;28;20045;-76
2023/03/14 00:43:34;;;;;;;22.98;4.90;;;;;;;;;;5051594;28;20474;-76
2023/03/14 00:46:01;;;;;;;20.38;4.53;;;;;;;;;;5018378;28;20044;-76
2023/03/14 00:48:27;;;;;;;19.10;5.05;;;;;;;;;;5051827;28;20080;-76
2023/03/14 00:50:53;;;;;;;23.27;5.10;;;;;;;;;;5034474;28;20041;-76
2023/03/14 00:53:19;;;;;;;18.88;4.63;;;;;;;;;;5039264;28;20037;-76
2023/03/14 00:55:45;;;;;;;20.00;4.88;;;;;;;;;;5053685;28;20052;-76
2023/03/14 00:58:12;;;;;;;24.90;4.75;;;;;;;;;;5034429;28;20052;-76
2023/03/14 01:00:38;;;;;;;22.13;4.57;;;;;;;;;;5034675;28;20127;-76
2023/03/14 01:03:04;;;;;;;22.70;5.15;;;;;;;;;;5053497;28;20198;-76
2023/03/14 01:05:30;;;;;;;20.08;4.57;;;;;;;;;;5071869;28;20059;-76
2023/03/14 01:07:57;;;;;;;27.38;4.93;;;;;;;;;;5053535;28;20131;-76
2023/03/14 01:10:23;;;;;;;19.15;4.32;;;;;;;;;;5074808;28;20060;-76
2023/03/14 01:12:50;;;;;;;20.63;4.85;;;;;;;;;;5075531;28;20423;-76
2023/03/14 01:15:16;;;;;;;19.38;4.22;;;;;;;;;;5041125;28;20102;-76
2023/03/14 01:17:42;;;;;;;19.50;4.35;;;;;;;;;;5041056;28;20055;-76
2023/03/14 01:20:10;;;;;;;20.95;5.00;;;;;;;;;;5075958;28;20097;-76
2023/03/14 01:22:38;;;;;;;17.10;3.78;;;;;;;;;;5057593;28;20120;-76
2023/03/14 01:25:04;;;;;;;15.90;3.90;;;;;;;;;;5057767;28;20123;-76
2023/03/14 01:27:30;;;;;;;18.98;4.80;;;;;;;;;;5040755;28;20048;-76
2023/03/14 01:29:56;;;;;;;20.70;4.13;;;;;;;;;;5034587;28;20040;-76
2023/03/14 01:32:23;;;;;;;21.27;4.03;;;;;;;;;;5037536;28;20048;-76
2023/03/14 01:34:49;;;;;;;20.05;4.18;;;;;;;;;;5055566;28;20045;-76
2023/03/14 01:37:15;;;;;;;21.20;4.40;;;;;;;;;;5058218;28;20171;-76
2023/03/14 01:39:41;;;;;;;15.05;4.05;;;;;;;;;;5071165;28;20079;-77
2023/03/14 01:42:07;;;;;;;21.58;4.35;;;;;;;;;;5053394;28;20142;-76
2023/03/14 01:44:52;;;;;;;18.27;3.70;;;;;;;;;;5037514;28;20120;-77
2023/03/14 01:47:18;;;;;;;22.65;4.68;;;;;;;;;;5062356;28;20052;-76
2023/03/14 01:49:47;;;;;;;17.48;3.97;;;;;;;;;;5047476;28;20044;-76
2023/03/14 01:52:24;;;;;;;16.10;4.07;;;;;;;;;;5056525;28;20053;-76
2023/03/14 01:54:53;;;;;;;15.77;3.97;;;;;;;;;;5036905;28;20041;-76
2023/03/14 01:57:22;;;;;;;15.88;3.67;;;;;;;;;;5055099;28;20049;-77
2023/03/14 02:00:14;;;;;;;21.17;3.80;;;;;;;;;;5055007;28;20044;-77
2023/03/14 02:02:43;;;;;;;15.73;3.78;;;;;;;;;;5050133;28;20088;-76
2023/03/14 02:05:09;;;;;;;15.07;3.20;;;;;;;;;;5036401;28;20048;-76
2023/03/14 02:07:46;;;;;;;16.77;3.53;;;;;;;;;;5031471;28;20048;-76
2023/03/14 02:10:12;;;;;;;16.00;3.78;;;;;;;;;;5057020;28;20055;-77
2023/03/14 02:12:39;;;;;;;19.05;4.20;;;;;;;;;;5054038;28;20050;-76
2023/03/14 02:15:05;;;;;;;14.75;3.80;;;;;;;;;;5055066;28;20098;-76
2023/03/14 02:17:31;;;;;;;13.95;3.25;;;;;;;;;;5074568;28;20045;-77
2023/03/14 02:19:58;;;;;;;16.33;3.55;;;;;;;;;;5074141;28;20147;-76
2023/03/14 02:22:24;;;;;;;18.27;3.13;;;;;;;;;;5054978;28;20040;-77
2023/03/14 02:24:50;;;;;;;13.90;3.25;;;;;;;;;;5056484;28;20084;-76
2023/03/14 02:27:17;;;;;;;11.93;3.10;;;;;;;;;;5056455;28;20079;-76
2023/03/14 02:29:49;;;;;;;18.65;3.53;;;;;;;;;;5056392;28;20059;-77
2023/03/14 02:32:17;;;;;;;16.02;3.38;;;;;;;;;;5056245;28;20082;-76
2023/03/14 02:34:43;;;;;;;15.27;3.80;;;;;;;;;;5056059;28;20044;-77
2023/03/14 02:37:10;;;;;;;15.00;3.42;;;;;;;;;;5036167;28;20044;-77
2023/03/14 02:39:39;;;;;;;17.88;3.00;;;;;;;;;;5036104;28;20099;-77
2023/03/14 02:42:05;;;;;;;13.98;2.80;;;;;;;;;;5053880;28;20036;-76
2023/03/14 02:44:31;;;;;;;15.40;3.28;;;;;;;;;;5030743;28;20268;-77
2023/03/14 02:46:57;;;;;;;14.27;3.10;;;;;;;;;;5054566;28;20033;-77
2023/03/14 02:49:24;;;;;;;15.63;3.33;;;;;;;;;;5054094;28;20040;-76
2023/03/14 02:51:50;;;;;;;15.70;3.65;;;;;;;;;;5049465;28;20067;-76
2023/03/14 02:54:16;;;;;;;13.77;3.42;;;;;;;;;;5057195;28;20063;-77
2023/03/14 02:56:42;;;;;;;12.60;3.30;;;;;;;;;;5061750;28;20124;-77
2023/03/14 02:59:08;;;;;;;14.52;3.53;;;;;;;;;;5053871;28;20070;-77
2023/03/14 03:01:34;;;;;;;10.32;3.03;;;;;;;;;;5053188;28;20072;-77
2023/03/14 03:04:00;;;;;;;13.70;3.47;;;;;;;;;;5051862;28;20037;-76
2023/03/14 03:06:26;;;;;;;12.23;3.20;;;;;;;;;;5053302;28;20132;-76
2023/03/14 03:08:53;;;;;;;12.98;3.80;;;;;;;;;;5035326;28;20058;-76
2023/03/14 03:11:19;;;;;;;14.77;3.70;;;;;;;;;;5036146;28;20060;-76
2023/03/14 03:13:45;;;;;;;14.00;3.50;;;;;;;;;;5072121;28;20052;-76
2023/03/14 03:16:13;;;;;;;14.95;3.30;;;;;;;;;;5073941;28;20040;-75
2023/03/14 03:18:39;;;;;;;20.33;4.82;;;;;;;;;;5073255;28;20447;-76
2023/03/14 03:21:07;;;;;;;15.15;3.70;;;;;;;;;;5073724;28;20105;-76
2023/03/14 03:23:33;;;;;;;13.18;3.85;;;;;;;;;;5054095;28;20048;-76
2023/03/14 03:25:59;;;;;;;16.45;4.35;;;;;;;;;;5055615;28;20048;-76
2023/03/14 03:28:25;;;;;;;12.52;3.90;;;;;;;;;;5038374;28;20126;-76
2023/03/14 03:30:51;;;;;;;13.75;4.25;;;;;;;;;;5055671;28;20510;-76
2023/03/14 03:33:17;;;;;;;17.30;4.28;;;;;;;;;;5072882;28;20084;-76
2023/03/14 03:35:44;;;;;;;15.45;4.72;;;;;;;;;;5038672;28;20040;-76
2023/03/14 03:38:11;;;;;;;18.25;4.35;;;;;;;;;;5072500;28;20509;-76
2023/03/14 03:40:37;;;;;;;15.20;4.25;;;;;;;;;;5055386;28;20409;-76
2023/03/14 03:43:03;;;;;;;14.70;3.90;;;;;;;;;;5045586;28;20044;-76
2023/03/14 03:45:30;;;;;;;13.05;4.18;;;;;;;;;;5053422;28;20041;-77
2023/03/14 03:47:56;;;;;;;15.43;3.67;;;;;;;;;;5052601;28;20044;-77
2023/03/14 03:50:22;;;;;;;11.65;3.97;;;;;;;;;;5072651;28;20048;-76
2023/03/14 03:52:48;;;;;;;16.65;3.95;;;;;;;;;;5072572;28;20041;-76
2023/03/14 03:55:14;;;;;;;17.52;4.78;;;;;;;;;;5054816;28;20044;-76
2023/03/14 03:57:40;;;;;;;16.42;4.40;;;;;;;;;;5057410;28;20051;-76
2023/03/14 04:00:08;;;;;;;17.80;4.88;;;;;;;;;;5047134;28;20055;-76
2023/03/14 04:02:35;;;;;;;16.13;4.68;;;;;;;;;;5053417;28;20494;-76
2023/03/14 04:05:01;;;;;;;14.43;4.35;;;;;;;;;;5062713;28;20048;-76
2023/03/14 04:07:27;;;;;;;17.63;4.55;;;;;;;;;;5034774;28;20052;-76
2023/03/14 04:09:53;;;;;;;15.27;4.68;;;;;;;;;;5054153;28;20041;-76
2023/03/14 04:12:19;;;;;;;18.88;4.72;;;;;;;;;;5066467;28;20440;-76
2023/03/14 04:14:46;;;;;;;21.08;5.05;;;;;;;;;;5049212;28;20052;-76
2023/03/14 04:17:12;;;;;;;20.88;5.05;;;;;;;;;;5044694;28;20037;-77
2023/03/14 04:19:38;;;;;;;16.65;4.47;;;;;;;;;;5071322;28;20048;-76
2023/03/14 04:22:04;;;;;;;22.63;5.55;;;;;;;;;;5035731;28;20467;-76
2023/03/14 04:24:30;;;;;;;23.98;5.68;;;;;;;;;;5064672;28;20124;-76
2023/03/14 04:26:56;;;;;;;23.67;5.43;;;;;;;;;;5067760;28;20047;-76
2023/03/14 04:29:22;;;;;;;25.42;5.93;;;;;;;;;;5062299;28;20076;-76
2023/03/14 04:31:48;;;;;;;17.15;5.30;;;;;;;;;;5072502;28;20083;-76
2023/03/14 04:34:14;;;;;;;21.33;5.88;;;;;;;;;;5054043;28;20132;-76
2023/03/14 04:36:40;;;;;;;26.15;5.85;;;;;;;;;;5054074;28;20094;-76
2023/03/14 04:39:06;;;;;;;20.17;6.15;;;;;;;;;;5053815;28;20056;-76
2023/03/14 04:41:32;;;;;;;24.75;7.07;;;;;;;;;;5062010;28;20049;-76
2023/03/14 04:43:58;;;;;;;19.73;6.60;;;;;;;;;;5051952;28;20041;-76
2023/03/14 04:46:24;;;;;;;20.88;6.93;;;;;;;;;;5056185;28;20041;-77
2023/03/14 04:48:50;;;;;;;20.42;7.35;;;;;;;;;;5037303;28;20040;-76
2023/03/14 04:51:16;;;;;;;20.40;6.80;;;;;;;;;;5056287;28;20051;-76
2023/03/14 04:53:42;;;;;;;18.50;7.50;;;;;;;;;;5037743;28;20059;-76
2023/03/14 04:56:08;;;;;;;15.52;7.35;;;;;;;;;;5055145;28;20072;-76
2023/03/14 04:58:34;;;;;;;16.75;7.72;;;;;;;;;;5055417;28;20194;-77
2023/03/14 05:01:04;;;;;;;18.95;7.85;;;;;;;;;;5056193;28;20493;-77
2023/03/14 05:03:30;;;;;;;18.48;8.13;;;;;;;;;;5055774;28;20095;-77
2023/03/14 05:05:58;;;;;;;16.15;7.72;;;;;;;;;;5037035;28;20554;-77
2023/03/14 05:08:24;;;;;;;21.70;7.70;;;;;;;;;;5055050;28;20084;-77
2023/03/14 05:10:57;;;;;;;20.55;8.25;;;;;;;;;;5056060;28;20053;-77
2023/03/14 05:13:23;;;;;;;26.35;9.45;;;;;;;;;;5038033;28;20033;-77
2023/03/14 05:15:50;;;;;;;19.95;8.88;;;;;;;;;;5037937;28;20374;-77
2023/03/14 05:18:16;;;;;;;19.45;8.80;;;;;;;;;;5032680;28;20056;-76
2023/03/14 05:20:45;;;;;;;19.98;8.95;;;;;;;;;;5041249;28;20049;-76
2023/03/14 05:23:11;;;;;;;26.90;9.35;;;;;;;;;;5070008;28;20114;-76
2023/03/14 05:25:37;;;;;;;14.10;8.07;;;;;;;;;;5037894;28;20127;-76
2023/03/14 05:28:03;;;;;;;18.65;7.80;;;;;;;;;;5056435;28;20423;-76
2023/03/14 05:30:30;;;;;;;19.45;8.43;;;;;;;;;;5057525;28;20174;-77
2023/03/14 05:32:57;;;;;;;18.80;8.55;;;;;;;;;;5044352;28;20045;-76
2023/03/14 05:35:23;;;;;;;18.08;8.52;;;;;;;;;;5071074;28;20048;-77
2023/03/14 05:37:49;;;;;;;19.38;8.40;;;;;;;;;;5062055;28;20124;-76
2023/03/14 05:40:15;;;;;;;18.45;8.30;;;;;;;;;;5055248;28;20048;-77
2023/03/14 05:42:41;;;;;;;19.65;8.18;;;;;;;;;;5067029;28;20139;-77
2023/03/14 05:45:07;;;;;;;18.50;7.63;;;;;;;;;;5049227;28;20044;-77
2023/03/14 05:47:33;;;;;;;16.90;8.02;;;;;;;;;;5044680;28;20056;-77
2023/03/14 05:49:59;;;;;;;15.60;7.45;;;;;;;;;;5075368;28;20119;-77
2023/03/14 05:52:25;;;;;;;20.45;7.68;;;;;;;;;;5057137;28;20341;-78
2023/03/14 05:54:51;;;;;;;18.50;7.57;;;;;;;;;;5056927;28;20084;-77
2023/03/14 05:57:17;;;;;;;21.55;6.75;;;;;;;;;;5073693;28;20103;-77
2023/03/14 05:59:43;;;;;;;13.10;7.05;;;;;;;;;;5056558;28;20041;-77
2023/03/14 06:02:09;;;;;;;15.35;7.00;;;;;;;;;;5054235;28;20049;-77
2023/03/14 06:04:35;;;;;;;18.23;7.55;;;;;;;;;;5036270;28;20047;-76
2023/03/14 06:07:01;;;;;;;12.23;5.80;;;;;;;;;;5074857;28;20523;-77
2023/03/14 06:09:27;;;;;;;11.13;6.00;;;;;;;;;;5073069;28;20159;-77
2023/03/14 06:11:53;;;;;;;13.32;5.10;;;;;;;;;;5073409;28;20060;-77
2023/03/14 06:14:19;;;;;;;13.32;4.97;;;;;;;;;;5073021;28;20044;-76
2023/03/14 06:16:47;;;;;;;9.60;4.70;;;;;;;;;;5056898;28;20363;-77
2023/03/14 06:19:13;;;;;;;11.02;4.95;;;;;;;;;;5074530;28;20124;-77
2023/03/14 06:21:40;;;;;;;16.30;5.43;;;;;;;;;;5074420;28;20135;-77
2023/03/14 06:24:06;;;;;;;10.80;5.40;;;;;;;;;;5074006;28;20056;-76
2023/03/14 06:26:33;;;;;;;12.18;5.15;;;;;;;;;;5073210;28;20039;-76
2023/03/14 06:29:03;;;;;;;15.45;5.57;;;;;;;;;;5074227;28;20056;-76
2023/03/14 06:31:32;;;;;;;6.40;2.28;;;;;;;;;;5073952;28;20083;-76
2023/03/14 06:33:58;;;;;;;6.07;1.90;;;;;;;;;;5074127;28;20058;-76
2023/03/14 06:36:24;;;;;;;6.43;1.58;;;;;;;;;;5056398;28;20044;-76
2023/03/14 06:38:50;;;;;;;11.13;2.15;;;;;;;;;;5073587;28;20056;-76
2023/03/14 06:41:16;;;;;;;11.55;1.90;;;;;;;;;;5039451;28;20048;-76
2023/03/14 06:43:42;;;;;;;10.15;2.50;;;;;;;;;;5053258;28;20132;-77
2023/03/14 06:46:08;;;;;;;11.40;2.20;;;;;;;;;;5039506;28;20044;-77
2023/03/14 06:48:34;;;;;;;17.92;2.88;;;;;;;;;;5055886;28;20072;-77
2023/03/14 06:51:00;;;;;;;19.98;3.17;;;;;;;;;;5042773;28;20037;-76
2023/03/14 06:53:26;;;;;;;20.10;3.03;;;;;;;;;;5058793;28;20040;-76
2023/03/14 06:55:53;;;;;;;20.17;3.45;;;;;;;;;;5042030;28;20076;-76
2023/03/14 06:58:19;;;;;;;16.55;3.05;;;;;;;;;;5050204;28;20088;-76
2023/03/14 07:00:45;;;;;;;14.10;3.00;;;;;;;;;;5063401;28;20140;-77
2023/03/14 07:03:12;;;;;;;14.70;2.70;;;;;;;;;;5053539;28;20051;-77
2023/03/14 07:05:40;;;;;;;17.20;2.70;;;;;;;;;;5055802;28;20040;-77
2023/03/14 07:08:06;;;;;;;17.05;2.78;;;;;;;;;;5072887;28;20512;-77
2023/03/14 07:10:32;;;;;;;14.85;2.72;;;;;;;;;;5055382;28;20059;-77
2023/03/14 07:12:58;;;;;;;14.65;2.50;;;;;;;;;;5072644;28;20063;-78
2023/03/14 07:15:24;;;;;;;17.77;2.78;;;;;;;;;;5072832;28;20331;-77
2023/03/14 07:17:50;;;;;;;12.45;2.20;;;;;;;;;;5053967;28;20044;-77
2023/03/14 07:20:17;;;;;;;14.05;2.45;;;;;;;;;;5065989;28;20052;-78
2023/03/14 07:22:43;;;;;;;11.23;2.20;;;;;;;;;;5069343;28;20114;-77
2023/03/14 07:25:11;;;;;;;10.52;2.10;;;;;;;;;;5068574;28;20037;-78
2023/03/14 07:27:38;;;;;;;6.60;1.73;;;;;;;;;;5067902;28;20044;-78
2023/03/14 07:30:04;;;;;;;8.85;1.77;;;;;;;;;;5053350;28;20096;-77
2023/03/14 07:32:30;;;;;;;6.32;1.77;;;;;;;;;;5068144;28;20045;-77
2023/03/14 07:34:56;;;;;;;8.05;1.70;;;;;;;;;;5068295;28;20097;-77
2023/03/14 07:37:22;;;;;;;5.70;1.30;;;;;;;;;;5069185;28;20049;-77
2023/03/14 07:39:49;;;;;;;7.32;1.58;;;;;;;;;;5053880;28;20513;-77
2023/03/14 07:42:15;;;;;;;8.15;1.50;;;;;;;;;;5065778;28;20047;-78
2023/03/14 07:44:41;;;;;;;4.03;1.40;;;;;;;;;;5031988;28;20490;-77
2023/03/14 07:47:07;;;;;;;7.22;1.70;;;;;;;;;;5035176;28;20053;-77
2023/03/14 07:49:33;;;;;;;5.13;1.40;;;;;;;;;;5034825;28;20413;-77
2023/03/14 07:51:59;;;;;;;4.75;1.50;;;;;;;;;;5053695;28;20040;-77
2023/03/14 07:54:25;;;;;;;5.97;1.50;;;;;;;;;;5046188;28;20488;-77
2023/03/14 07:56:51;;;;;;;5.95;1.65;;;;;;;;;;5062733;28;20091;-78
2023/03/14 07:59:18;;;;;;;8.27;1.50;;;;;;;;;;5067124;28;20044;-77
2023/03/14 08:01:44;;;;;;;6.53;1.60;;;;;;;;;;5060652;28;20052;-78
2023/03/14 08:04:10;;;;;;;5.93;1.45;;;;;;;;;;5033945;28;20083;-77
2023/03/14 08:06:37;;;;;;;7.75;2.00;;;;;;;;;;5052567;28;20045;-77
2023/03/14 08:09:03;;;;;;;5.47;1.40;;;;;;;;;;5028659;28;20101;-77
2023/03/14 08:11:29;;;;;;;6.55;1.60;;;;;;;;;;5048121;28;20040;-77
2023/03/14 08:13:55;;;;;;;4.80;1.40;;;;;;;;;;5050219;28;20044;-77
2023/03/14 08:16:21;;;;;;;9.05;1.88;;;;;;;;;;5040717;28;20054;-77
2023/03/14 08:18:47;;;;;;;10.50;1.90;;;;;;;;;;5049832;28;20042;-77
2023/03/14 08:21:14;;;;;;;6.45;1.88;;;;;;;;;;5034171;28;20037;-77
2023/03/14 08:23:40;;;;;;;5.57;1.70;;;;;;;;;;5050534;28;20060;-77
2023/03/14 08:26:06;;;;;;;6.95;1.75;;;;;;;;;;5052328;28;20072;-77
2023/03/14 08:28:33;;;;;;;8.25;1.75;;;;;;;;;;5047280;28;20393;-77
2023/03/14 08:30:59;;;;;;;7.75;1.80;;;;;;;;;;5032811;28;20103;-77
2023/03/14 08:33:25;;;;;;;9.48;1.90;;;;;;;;;;5063427;28;20044;-77
2023/03/14 08:35:52;;;;;;;9.55;2.00;;;;;;;;;;5064075;28;20049;-77
2023/03/14 08:38:18;;;;;;;7.05;1.77;;;;;;;;;;5063863;28;20049;-77
2023/03/14 08:40:44;;;;;;;8.73;2.15;;;;;;;;;;5064737;28;20424;-76
2023/03/14 08:43:10;;;;;;;12.40;2.75;;;;;;;;;;5032800;28;20181;-78
2023/03/14 08:45:36;;;;;;;11.00;2.72;;;;;;;;;;5064873;28;20041;-75
2023/03/14 08:48:02;;;;;;;9.07;2.40;;;;;;;;;;5062639;28;20095;-78
2023/03/14 08:50:29;;;;;;;17.33;3.25;;;;;;;;;;5027651;28;20070;-77
2023/03/14 08:52:55;;;;;;;13.45;2.60;;;;;;;;;;5035170;28;20068;-77
2023/03/14 08:55:21;;;;;;;12.10;3.03;;;;;;;;;;5039169;28;20111;-77
2023/03/14 08:57:47;;;;;;;13.90;2.85;;;;;;;;;;5028631;28;20048;-77
2023/03/14 09:00:15;;;;;;;16.35;3.28;;;;;;;;;;5036430;28;20057;-76
2023/03/14 09:02:41;;;;;;;12.57;2.88;;;;;;;;;;5049225;28;20057;-77
2023/03/14 09:05:08;;;;;;;17.08;3.20;;;;;;;;;;5037550;28;20045;-77
2023/03/14 09:07:34;;;;;;;17.33;3.22;;;;;;;;;;5040679;28;20045;-77
2023/03/14 09:10:00;;;;;;;16.08;3.50;;;;;;;;;;5037649;28;20075;-77
2023/03/14 09:12:26;;;;;;;15.93;3.00;;;;;;;;;;5053974;28;20128;-76
2023/03/14 09:14:52;;;;;;;13.77;3.13;;;;;;;;;;5049440;28;20182;-77
2023/03/14 09:17:18;;;;;;;14.98;3.10;;;;;;;;;;5060394;28;20044;-77
2023/03/14 09:19:44;;;;;;;17.38;3.33;;;;;;;;;;5062992;28;20045;-77
2023/03/14 09:22:10;;;;;;;15.40;4.25;;;;;;;;;;5034702;28;20051;-77
2023/03/14 09:24:36;;;;;;;20.90;3.60;;;;;;;;;;5054165;28;20055;-78
2023/03/14 09:27:02;;;;;;;22.00;3.35;;;;;;;;;;5052314;28;20463;-77
2023/03/14 09:29:28;;;;;;;18.27;3.75;;;;;;;;;;5067366;28;20041;-77
2023/03/14 09:31:54;;;;;;;25.63;4.05;;;;;;;;;;5053786;28;20068;-77
2023/03/14 09:34:20;;;;;;;19.05;3.97;;;;;;;;;;5070498;28;20045;-77
2023/03/14 09:36:46;;;;;;;21.52;4.03;;;;;;;;;;5054451;28;20040;-77
2023/03/14 09:39:12;;;;;;;19.65;3.53;;;;;;;;;;5021171;28;20107;-77
2023/03/14 09:41:40;;;;;;;16.30;4.25;;;;;;;;;;5055696;28;20040;-78
2023/03/14 09:44:12;;;;;;;16.08;3.15;;;;;;;;;;5052475;28;20462;-76
2023/03/14 09:46:39;;;;;;;13.55;3.58;;;;;;;;;;5037754;28;20041;-77
2023/03/14 09:49:31;;;;;;;21.88;3.72;;;;;;;;;;5037139;28;20088;-77
2023/03/14 09:51:59;;;;;;;20.63;3.83;;;;;;;;;;5051366;28;20140;-76
2023/03/14 09:54:33;;;;;;;16.00;3.50;;;;;;;;;;5037018;28;20045;-77
2023/03/14 09:57:00;;;;;;;20.00;4.05;;;;;;;;;;5037015;28;20048;-77
2023/03/14 09:59:27;;;;;;;16.80;3.58;;;;;;;;;;5041129;28;20045;-76
2023/03/14 10:01:53;;;;;;;19.05;4.03;;;;;;;;;;5052759;28;20044;-77
2023/03/14 10:04:25;;;;;;;21.08;3.78;;;;;;;;;;5076883;28;20099;-77
2023/03/14 10:06:51;;;;;;;20.35;3.97;;;;;;;;;;5070290;28;20131;-77
2023/03/14 10:09:25;;;;;;;19.30;4.13;;;;;;;;;;5076268;28;20106;-77
2023/03/14 10:11:52;;;;;;;23.90;4.32;;;;;;;;;;5057164;28;20470;-77
2023/03/14 10:14:29;;;;;;;19.70;3.35;;;;;;;;;;5062515;28;20072;-76
2023/03/14 10:16:55;;;;;;;20.48;3.78;;;;;;;;;;5059819;28;20431;-77
2023/03/14 10:19:21;;;;;;;20.25;3.80;;;;;;;;;;5067536;28;20146;-77
2023/03/14 10:21:52;;;;;;;18.50;3.30;;;;;;;;;;5065593;28;20106;-77
2023/03/14 10:24:20;;;;;;;16.05;3.30;;;;;;;;;;5072689;28;20065;-77
2023/03/14 10:26:50;;;;;;;19.05;2.97;;;;;;;;;;5074873;28;20041;-77
2023/03/14 10:29:16;;;;;;;19.90;3.20;;;;;;;;;;5032311;28;20044;-77
2023/03/14 10:31:48;;;;;;;17.77;3.10;;;;;;;;;;5069978;28;20136;-77
2023/03/14 10:34:21;;;;;;;16.55;3.03;;;;;;;;;;5072134;28;20036;-77
2023/03/14 10:36:52;;;;;;;11.60;2.88;;;;;;;;;;5074407;28;20051;-77
2023/03/14 10:39:18;;;;;;;11.75;2.50;;;;;;;;;;5055727;28;20040;-77
2023/03/14 10:41:48;;;;;;;14.73;2.72;;;;;;;;;;5073602;28;20032;-77
2023/03/14 10:44:15;;;;;;;11.82;2.70;;;;;;;;;;5038912;28;20044;-77
2023/03/14 10:46:42;;;;;;;9.18;2.50;;;;;;;;;;5072408;28;20131;-77
2023/03/14 10:49:08;;;;;;;15.63;2.95;;;;;;;;;;5071712;28;20044;-78
2023/03/14 10:51:34;;;;;;;17.23;3.10;;;;;;;;;;5072104;28;20436;-77
2023/03/14 10:54:02;;;;;;;11.43;2.53;;;;;;;;;;5071620;28;20045;-77
2023/03/14 10:56:34;;;;;;;13.18;2.72;;;;;;;;;;5072242;28;20125;-77
2023/03/14 10:59:00;;;;;;;10.18;2.90;;;;;;;;;;5072118;28;20404;-77
2023/03/14 11:01:26;;;;;;;10.88;2.50;;;;;;;;;;5056300;28;20394;-77
2023/03/14 11:04:07;;;;;;;9.73;2.30;;;;;;;;;;5072481;28;20112;-77
2023/03/14 11:06:39;;;;;;;10.00;2.20;;;;;;;;;;5055289;28;20041;-78
2023/03/14 11:09:11;;;;;;;11.85;2.50;;;;;;;;;;5072357;28;20437;-77
2023/03/14 11:11:40;;;;;;;10.13;2.08;;;;;;;;;;5073491;28;20493;-77
2023/03/14 11:14:15;;;;;;;14.23;2.40;;;;;;;;;;5055260;28;20098;-77
2023/03/14 11:17:00;;;;;;;7.25;2.40;;;;;;;;;;5074046;28;20048;-77
2023/03/14 11:19:31;;;;;;;9.43;2.20;;;;;;;;;;5073365;28;20123;-77
2023/03/14 11:22:10;;;;;;;11.82;2.75;;;;;;;;;;5055957;28;20481;-77
2023/03/14 11:24:50;;;;;;;5.82;2.05;;;;;;;;;;5038719;28;20043;-77
2023/03/14 11:27:23;;;;;;;7.78;2.08;;;;;;;;;;5038968;28;20113;-77
2023/03/14 11:30:01;;;;;;;8.65;2.28;;;;;;;;;;5055522;28;20076;-77
2023/03/14 11:32:36;;;;;;;7.20;2.25;;;;;;;;;;5038635;28;20087;-77
2023/03/14 11:35:02;;;;;;;;;;;;;;;;;;5073729;28;20081;-77
2023/03/14 11:37:37;;;;;;;8.85;1.90;;;;;;;;;;5065678;28;19928;-77
2023/03/14 11:40:13;;;;;;;7.18;1.90;;;;;;;;;;5018719;28;20083;-77
2023/03/14 11:42:42;;;;;;;10.20;2.28;;;;;;;;;;5052951;28;20417;-77
2023/03/14 11:45:17;;;;;;;10.50;2.00;;;;;;;;;;5018893;28;20041;-77
2023/03/14 11:47:44;;;;;;;9.48;2.30;;;;;;;;;;5050964;28;20127;-78
2023/03/14 11:50:10;;;;;;;7.60;2.10;;;;;;;;;;5033589;28;20041;-77
2023/03/14 11:52:38;;;;;;;9.27;1.98;;;;;;;;;;5034608;28;20144;-77
2023/03/14 11:55:04;;;;;;;8.93;2.28;;;;;;;;;;5052981;28;20045;-77
2023/03/14 11:57:30;;;;;;;5.97;2.03;;;;;;;;;;5052912;28;20044;-77
2023/03/14 11:59:59;;;;;;;6.63;2.10;;;;;;;;;;5052717;28;20052;-78
2023/03/14 12:02:28;;;;;;;6.80;1.83;;;;;;;;;;5052466;28;20037;-77
2023/03/14 12:04:54;;;;;;;8.10;2.00;;;;;;;;;;5052509;28;20049;-77
2023/03/14 12:07:30;;;;;;;5.88;1.90;;;;;;;;;;5052620;28;20053;-77
2023/03/14 12:09:56;;;;;;;9.93;2.40;;;;;;;;;;5052572;28;20120;-77
2023/03/14 12:12:24;;;;;;;12.02;2.40;;;;;;;;;;5052419;28;20080;-77
2023/03/14 12:15:13;;;;;;;13.85;2.33;;;;;;;;;;5052521;28;20136;-77
2023/03/14 12:17:40;;;;;;;10.60;2.28;;;;;;;;;;5041505;28;20048;-77
2023/03/14 12:20:15;;;;;;;9.23;2.10;;;;;;;;;;5034026;28;20078;-77
2023/03/14 12:23:02;;;;;;;8.10;2.40;;;;;;;;;;5052168;28;20065;-77
2023/03/14 12:25:30;;;;;;;12.30;2.20;;;;;;;;;;5035068;28;20362;-77
2023/03/14 12:27:56;;;;;;;6.93;2.13;;;;;;;;;;5051966;28;20056;-77
2023/03/14 12:30:35;;;;;;;9.35;2.28;;;;;;;;;;5052720;28;20055;-77
2023/03/14 12:33:10;;;;;;;11.00;2.22;;;;;;;;;;5034155;28;20144;-77
2023/03/14 12:35:40;;;;;;;10.05;2.50;;;;;;;;;;5034956;28;20087;-77
2023/03/14 12:38:24;;;;;;;11.15;2.55;;;;;;;;;;5064166;28;20153;-78
2023/03/14 12:41:09;;;;;;;11.75;2.70;;;;;;;;;;5071596;28;20118;-77
2023/03/14 12:43:37;;;;;;;11.35;2.78;;;;;;;;;;5050695;28;20045;-77
2023/03/14 12:46:23;;;;;;;12.32;2.85;;;;;;;;;;5070999;28;20116;-78
2023/03/14 12:48:57;;;;;;;12.90;2.60;;;;;;;;;;5053512;28;20099;-78
2023/03/14 12:51:35;;;;;;;12.38;2.85;;;;;;;;;;5072561;28;20098;-77
2023/03/14 12:54:05;;;;;;;10.52;2.67;;;;;;;;;;5054170;28;20052;-78
2023/03/14 12:56:43;;;;;;;11.45;2.22;;;;;;;;;;5072349;28;20056;-78
2023/03/14 12:59:12;;;;;;;10.50;2.50;;;;;;;;;;5071906;28;20045;-77
2023/03/14 13:01:45;;;;;;;9.80;2.50;;;;;;;;;;5037710;28;20048;-77
2023/03/14 13:04:12;;;;;;;9.43;1.95;;;;;;;;;;5071987;28;20072;-77
2023/03/14 13:06:56;;;;;;;8.00;2.28;;;;;;;;;;5074619;28;20097;-78
2023/03/14 13:09:29;;;;;;;13.25;2.30;;;;;;;;;;5056846;28;20052;-77
2023/03/14 13:11:55;;;;;;;7.88;2.05;;;;;;;;;;5041283;28;20535;-77
2023/03/14 13:14:21;;;;;;;8.50;2.08;;;;;;;;;;5075983;28;20443;-78
2023/03/14 13:16:47;;;;;;;6.00;1.90;;;;;;;;;;5076120;28;20051;-77
2023/03/14 13:19:22;;;;;;;8.23;2.08;;;;;;;;;;5041016;28;20086;-77
2023/03/14 13:21:48;;;;;;;8.50;2.08;;;;;;;;;;5075823;28;20444;-77
2023/03/14 13:24:23;;;;;;;13.23;2.22;;;;;;;;;;5057337;28;20149;-77
2023/03/14 13:26:50;;;;;;;9.38;1.90;;;;;;;;;;5041053;28;20044;-77
2023/03/14 13:29:23;;;;;;;8.52;1.90;;;;;;;;;;5057471;28;20048;-77
2023/03/14 13:31:51;;;;;;;8.65;2.10;;;;;;;;;;5057459;28;20066;-77
2023/03/14 13:34:17;;;;;;;9.60;2.28;;;;;;;;;;5075445;28;20079;-77
2023/03/14 13:36:43;;;;;;;6.53;1.85;;;;;;;;;;5040784;28;20052;-77
2023/03/14 13:39:21;;;;;;;10.02;2.00;;;;;;;;;;5058241;28;20045;-77
2023/03/14 13:41:48;;;;;;;7.32;2.00;;;;;;;;;;5041650;28;20102;-77
2023/03/14 13:44:17;;;;;;;8.63;2.20;;;;;;;;;;5045318;28;20041;-77
2023/03/14 13:46:43;;;;;;;9.02;2.30;;;;;;;;;;5062422;28;20543;-78
2023/03/14 13:49:16;;;;;;;8.50;2.42;;;;;;;;;;5044824;28;20075;-78
2023/03/14 13:51:43;;;;;;;9.30;1.98;;;;;;;;;;5055385;28;20049;-78
2023/03/14 13:54:17;;;;;;;8.23;2.20;;;;;;;;;;5062847;28;20210;-76
2023/03/14 13:56:43;;;;;;;8.75;2.13;;;;;;;;;;5054953;28;20414;-76
2023/03/14 13:59:22;;;;;;;9.88;2.10;;;;;;;;;;5050733;28;20064;-76
2023/03/14 14:01:48;;;;;;;8.25;2.22;;;;;;;;;;5050765;28;20049;-76
2023/03/14 14:04:25;;;;;;;7.15;2.53;;;;;;;;;;5050058;28;20052;-77
2023/03/14 14:06:51;;;;;;;9.40;2.13;;;;;;;;;;5047245;28;20041;-76
2023/03/14 14:09:19;;;;;;;10.60;2.13;;;;;;;;;;5031973;28;20076;-76
2023/03/14 14:11:50;;;;;;;6.50;1.80;;;;;;;;;;5015770;28;20045;-77
2023/03/14 14:14:22;;;;;;;8.77;2.10;;;;;;;;;;5032166;28;20052;-77
2023/03/14 14:16:50;;;;;;;7.55;2.00;;;;;;;;;;5031940;28;20202;-77
2023/03/14 14:19:17;;;;;;;6.43;2.08;;;;;;;;;;5033626;28;20137;-76
2023/03/14 14:21:43;;;;;;;7.68;1.88;;;;;;;;;;5034042;28;20443;-76
2023/03/14 14:24:13;;;;;;;9.25;1.55;;;;;;;;;;5052426;28;20045;-76
2023/03/14 14:27:02;;;;;;;9.18;1.85;;;;;;;;;;5034011;28;20045;-75
2023/03/14 14:29:30;;;;;;;9.63;1.95;;;;;;;;;;5028109;28;20098;-75
2023/03/14 14:32:09;;;;;;;8.68;2.17;;;;;;;;;;5066912;28;20102;-75
2023/03/14 14:34:40;;;;;;;11.85;2.53;;;;;;;;;;5051269;28;20429;-76
2023/03/14 14:37:17;;;;;;;10.90;2.50;;;;;;;;;;5054846;28;20552;-76
2023/03/14 14:39:43;;;;;;;9.27;2.05;;;;;;;;;;5036490;28;20041;-76